Time;durP1;ratioP1;P1;durP2;ratioP2;P2;SDS_P1;SDS_P2;PMS_P1;PMS_P2;Temp;Humidity;BMP_temperature;BMP_pressure;BME280_temperature;BME280_humidity;BME280_pressure;Samples;Min_cycle;Max_cycle;Signal;HPM_P1;HPM_P2
2022/06/12 00:00:27;;;;;;;4.32;3.55;;;14.40;99.90;;;;;;5085453;28;20131;-31
2022/06/12 00:02:53;;;;;;;4.47;3.45;;;14.20;99.90;;;;;;5081661;28;20035;-32
2022/06/12 00:05:21;;;;;;;4.30;3.60;;;14.10;99.90;;;;;;5078376;28;20092;-31
2022/06/12 00:07:47;;;;;;;4.75;3.80;;;13.90;99.90;;;;;;5113855;28;20016;-31
2022/06/12 00:10:13;;;;;;;5.07;3.65;;;14.00;99.90;;;;;;5080186;28;20047;-31
2022/06/12 00:12:41;;;;;;;3.85;3.40;;;14.10;99.90;;;;;;5081296;28;20116;-32
2022/06/12 00:15:09;;;;;;;5.03;3.38;;;14.20;99.90;;;;;;5093146;28;20077;-31
2022/06/12 00:17:35;;;;;;;4.70;3.28;;;14.20;99.90;;;;;;5076102;28;20389;-32
2022/06/12 00:20:01;;;;;;;5.75;3.20;;;14.20;99.90;;;;;;5087235;28;20027;-31
2022/06/12 00:22:27;;;;;;;3.72;3.38;;;14.20;99.90;;;;;;5080128;28;20020;-31
2022/06/12 00:24:52;;;;;;;4.38;3.38;;;14.20;99.90;;;;;;5082292;28;20067;-31
2022/06/12 00:27:18;;;;;;;3.60;3.30;;;14.20;99.90;;;;;;5088796;28;20044;-31
2022/06/12 00:29:47;;;;;;;3.40;3.08;;;14.20;99.90;;;;;;5093890;28;20028;-31
2022/06/12 00:32:15;;;;;;;3.75;3.35;;;14.00;99.90;;;;;;5081974;28;20059;-31
2022/06/12 00:34:48;;;;;;;3.13;2.85;;;13.90;99.90;;;;;;5080577;28;20091;-31
2022/06/12 00:37:14;;;;;;;3.47;2.97;;;13.80;99.90;;;;;;5080882;28;20067;-31
2022/06/12 00:39:43;;;;;;;3.70;3.25;;;13.60;99.90;;;;;;5094581;28;20062;-31
2022/06/12 00:42:09;;;;;;;;;;;13.40;99.90;;;;;;5084009;28;20032;-31
2022/06/12 00:44:41;;;;;;;4.00;2.85;;;13.40;99.90;;;;;;5085232;28;20625;-32
2022/06/12 00:47:11;;;;;;;4.75;2.80;;;13.60;99.90;;;;;;5086787;28;20038;-31
2022/06/12 00:49:48;;;;;;;3.10;2.80;;;13.70;99.90;;;;;;5089730;28;20028;-32
2022/06/12 00:52:16;;;;;;;3.03;2.78;;;13.70;99.90;;;;;;5082477;28;20036;-32
2022/06/12 00:54:45;;;;;;;3.33;3.00;;;13.70;99.90;;;;;;5090175;28;20032;-32
2022/06/12 00:57:12;;;;;;;5.72;3.30;;;13.80;99.90;;;;;;5087433;28;20039;-31
2022/06/12 00:59:44;;;;;;;3.50;3.05;;;13.80;99.90;;;;;;5076222;28;20067;-32
2022/06/12 01:02:13;;;;;;;3.28;2.97;;;13.80;99.90;;;;;;5076814;27;20028;-36
2022/06/12 01:07:28;;;;;;;3.25;2.95;;;13.20;99.90;;;;;;5085344;28;20043;-39
2022/06/12 01:09:59;;;;;;;3.58;3.28;;;13.00;99.90;;;;;;5083285;28;20043;-37
2022/06/12 01:12:30;;;;;;;3.60;3.15;;;13.10;99.90;;;;;;5084103;28;20032;-39
2022/06/12 01:15:01;;;;;;;5.22;2.90;;;13.20;99.90;;;;;;5087971;28;20416;-37
2022/06/12 01:17:28;;;;;;;3.70;3.15;;;13.20;99.90;;;;;;5082932;28;20792;-37
2022/06/12 01:20:01;;;;;;;4.28;2.97;;;13.30;99.90;;;;;;5089161;28;20035;-37
2022/06/12 01:22:30;;;;;;;3.63;3.15;;;13.30;99.90;;;;;;5088638;28;20031;-37
2022/06/12 01:25:33;;;;;;;3.38;2.95;;;13.30;99.90;;;;;;5089363;28;20032;-36
2022/06/12 01:28:32;;;;;;;3.15;2.88;;;13.30;99.90;;;;;;5078759;28;20492;-36
2022/06/12 01:31:16;;;;;;;3.67;3.03;;;13.40;99.90;;;;;;5087258;27;20028;-38
2022/06/12 01:34:09;;;;;;;3.55;3.00;;;13.50;99.90;;;;;;5082241;28;20031;-37
2022/06/12 01:36:58;;;;;;;3.85;3.08;;;13.50;99.90;;;;;;5082381;28;20082;-35
2022/06/12 01:39:37;;;;;;;4.18;2.97;;;13.50;99.90;;;;;;5085359;28;20024;-36
2022/06/12 01:42:16;;;;;;;3.83;2.72;;;13.50;99.90;;;;;;5091911;28;20036;-37
2022/06/12 01:44:55;;;;;;;3.10;2.78;;;13.40;99.90;;;;;;5090625;28;20038;-38
2022/06/12 01:47:33;;;;;;;3.10;2.80;;;13.30;99.90;;;;;;5086069;28;20101;-39
2022/06/12 01:50:28;;;;;;;3.30;2.95;;;13.10;99.90;;;;;;5084420;28;20107;-38
2022/06/12 01:53:01;;;;;;;3.65;3.30;;;12.90;99.90;;;;;;5072871;28;20040;-37
2022/06/12 01:55:32;;;;;;;3.78;3.03;;;12.70;99.90;;;;;;5085177;28;20503;-36
2022/06/12 01:58:15;;;;;;;3.75;3.00;;;12.70;99.90;;;;;;5088695;28;20634;-37
2022/06/12 02:00:47;;;;;;;3.85;3.10;;;12.70;99.90;;;;;;5083674;28;20035;-39
2022/06/12 02:03:36;;;;;;;3.55;3.15;;;12.70;99.90;;;;;;5091052;28;20085;-39
2022/06/12 02:06:13;;;;;;;3.80;3.13;;;12.20;99.90;;;;;;5093386;28;20118;-36
2022/06/12 02:08:46;;;;;;;3.35;3.05;;;11.90;99.90;;;;;;5078968;28;20107;-39
2022/06/12 02:14:12;;;;;;;3.20;2.90;;;12.20;99.90;;;;;;5077985;28;20607;-38
2022/06/12 02:16:43;;;;;;;3.40;3.10;;;12.30;99.90;;;;;;5083628;28;20489;-37
2022/06/12 02:19:17;;;;;;;6.00;3.15;;;12.40;99.90;;;;;;5098580;28;20503;-39
2022/06/12 02:21:53;;;;;;;5.28;3.40;;;12.20;99.90;;;;;;5083218;28;20148;-38
2022/06/12 02:24:39;;;;;;;3.20;2.90;;;12.10;99.90;;;;;;5086632;28;20150;-39
2022/06/12 02:27:18;;;;;;;3.83;3.28;;;11.80;99.90;;;;;;5082426;28;20454;-39
2022/06/12 02:30:11;;;;;;;3.75;3.30;;;11.80;99.90;;;;;;5091823;28;20111;-38
2022/06/12 02:32:51;;;;;;;5.90;3.40;;;11.90;99.90;;;;;;5074819;28;20043;-35
2022/06/12 02:35:39;;;;;;;3.33;3.03;;;11.90;99.90;;;;;;5089019;28;20683;-38
2022/06/12 02:38:28;;;;;;;3.50;3.20;;;12.10;99.90;;;;;;5077880;28;20028;-37
2022/06/12 02:40:59;;;;;;;5.57;3.50;;;12.10;99.90;;;;;;5092954;28;20123;-39
2022/06/12 02:43:31;;;;;;;5.88;3.20;;;12.10;99.90;;;;;;5086704;28;20081;-38
2022/06/12 02:46:05;;;;;;;4.18;3.00;;;12.20;99.90;;;;;;5090556;28;20036;-37
2022/06/12 02:48:31;;;;;;;4.15;3.25;;;12.30;99.90;;;;;;5095101;28;20027;-36
2022/06/12 02:51:13;;;;;;;5.85;3.13;;;12.30;99.90;;;;;;5096180;28;20032;-39
2022/06/12 02:53:58;;;;;;;4.55;3.22;;;12.00;99.90;;;;;;5094286;28;20023;-38
2022/06/12 02:56:36;;;;;;;4.57;3.25;;;11.80;99.90;;;;;;5093832;28;20048;-39
2022/06/12 02:59:14;;;;;;;;;;;11.70;99.90;;;;;;5088009;28;20024;-36
2022/06/12 03:02:00;;;;;;;3.40;3.10;;;11.50;99.90;;;;;;5082984;27;19927;-35
2022/06/12 03:04:36;;;;;;;4.72;3.65;;;11.40;99.90;;;;;;5077831;28;20597;-38
2022/06/12 03:07:02;;;;;;;4.35;3.80;;;11.50;99.90;;;;;;5085192;28;20381;-38
2022/06/12 03:09:28;;;;;;;3.90;3.50;;;11.60;99.90;;;;;;5081438;28;20405;-38
2022/06/12 03:11:55;;;;;;;9.25;3.47;;;11.80;99.90;;;;;;5084589;28;20078;-35
2022/06/12 03:14:22;;;;;;;4.20;3.60;;;11.90;99.90;;;;;;5080721;28;20186;-39
2022/06/12 03:16:49;;;;;;;4.43;3.33;;;12.00;99.90;;;;;;5087148;28;20039;-36
2022/06/12 03:19:24;;;;;;;4.45;3.30;;;11.80;99.90;;;;;;5083255;28;20036;-35
2022/06/12 03:22:15;;;;;;;3.05;2.83;;;11.60;99.90;;;;;;5080606;28;20020;-38
2022/06/12 03:24:57;;;;;;;4.18;3.47;;;11.70;99.90;;;;;;5087228;28;20074;-38
2022/06/12 03:27:31;;;;;;;4.22;2.83;;;11.80;99.90;;;;;;5082545;28;20129;-37
2022/06/12 03:30:30;;;;;;;3.53;3.17;;;12.00;99.90;;;;;;5088302;28;20365;-38
2022/06/12 03:33:20;;;;;;;3.40;3.13;;;12.00;99.90;;;;;;5079293;28;20043;-38
2022/06/12 03:35:46;;;;;;;3.50;2.70;;;11.70;99.90;;;;;;5083961;28;20560;-36
2022/06/12 03:38:30;;;;;;;4.65;3.40;;;11.60;99.90;;;;;;5082816;28;20160;-39
2022/06/12 03:41:21;;;;;;;3.72;3.38;;;11.40;99.90;;;;;;5083278;28;20109;-36
2022/06/12 03:44:14;;;;;;;3.80;3.15;;;11.20;99.90;;;;;;5082263;28;20032;-38
2022/06/12 03:46:52;;;;;;;3.65;3.22;;;11.30;99.90;;;;;;5095435;28;20081;-37
2022/06/12 03:49:44;;;;;;;3.33;3.03;;;11.50;99.90;;;;;;5080532;28;20082;-39
2022/06/12 03:52:34;;;;;;;4.07;3.50;;;11.60;99.90;;;;;;5082975;28;20024;-39
2022/06/12 03:55:10;;;;;;;4.03;3.17;;;11.80;99.90;;;;;;5080189;28;20040;-39
2022/06/12 03:57:52;;;;;;;3.17;2.88;;;11.90;99.90;;;;;;5086029;28;20070;-38
2022/06/12 04:00:36;;;;;;;3.67;3.20;;;12.10;99.90;;;;;;5078713;28;20024;-39
2022/06/12 04:03:13;;;;;;;3.53;3.20;;;12.10;99.90;;;;;;5083927;28;20477;-38
2022/06/12 04:05:47;;;;;;;3.65;3.35;;;12.20;99.90;;;;;;5082139;28;20028;-39
2022/06/12 04:08:21;;;;;;;3.30;3.00;;;12.40;99.90;;;;;;5079301;28;20020;-39
2022/06/12 04:10:48;;;;;;;4.13;3.20;;;12.50;99.90;;;;;;5086869;28;20036;-38
2022/06/12 04:13:16;;;;;;;4.00;3.70;;;12.60;99.90;;;;;;5080726;28;20056;-36
2022/06/12 04:15:47;;;;;;;4.85;3.38;;;12.70;99.90;;;;;;5080999;28;20577;-38
2022/06/12 04:18:14;;;;;;;3.60;3.30;;;12.70;99.90;;;;;;5078745;28;20489;-39
2022/06/12 04:21:00;;;;;;;3.90;3.47;;;12.80;99.90;;;;;;5075740;28;20024;-39
2022/06/12 04:23:47;;;;;;;6.28;3.20;;;13.00;99.90;;;;;;5082986;28;20039;-37
2022/06/12 04:26:25;;;;;;;4.22;3.10;;;13.10;99.90;;;;;;5081744;28;20032;-39
2022/06/12 04:28:57;;;;;;;4.97;3.53;;;13.20;99.90;;;;;;5086451;28;20053;-39
2022/06/12 04:31:23;;;;;;;3.78;3.33;;;13.20;99.90;;;;;;5084990;27;20416;-38
2022/06/12 04:33:56;;;;;;;5.30;3.30;;;13.40;99.90;;;;;;5079855;28;20025;-39
2022/06/12 04:36:22;;;;;;;3.08;2.78;;;13.50;99.90;;;;;;5083001;28;20390;-36
2022/06/12 04:38:48;;;;;;;4.40;3.00;;;13.50;99.90;;;;;;5084543;28;20035;-37
2022/06/12 04:41:31;;;;;;;3.40;3.10;;;13.70;99.90;;;;;;5083277;28;20532;-39
2022/06/12 04:43:57;;;;;;;3.70;3.30;;;13.80;99.90;;;;;;5090668;28;20020;-39
2022/06/12 04:46:24;;;;;;;7.43;3.50;;;14.00;99.90;;;;;;5091471;28;20085;-38
2022/06/12 04:48:51;;;;;;;3.88;3.58;;;14.10;99.90;;;;;;5080474;28;20114;-39
2022/06/12 04:51:18;;;;;;;5.83;3.63;;;14.20;99.90;;;;;;5081153;28;20103;-38
2022/06/12 04:53:45;;;;;;;3.40;3.10;;;14.30;99.90;;;;;;5087900;28;20775;-39
2022/06/12 04:56:12;;;;;;;3.45;3.15;;;14.40;99.90;;;;;;5089028;28;20035;-38
2022/06/12 04:58:39;;;;;;;9.45;3.70;;;14.50;99.90;;;;;;5085399;28;20032;-37
2022/06/12 05:01:05;;;;;;;3.83;3.38;;;14.70;99.90;;;;;;5082428;27;20465;-35
2022/06/12 05:03:31;;;;;;;3.50;3.20;;;14.70;99.90;;;;;;5093118;28;20027;-38
2022/06/12 05:05:57;;;;;;;5.25;3.55;;;14.60;99.90;;;;;;5085684;28;20043;-37
2022/06/12 05:08:23;;;;;;;4.00;3.10;;;14.50;99.90;;;;;;5079890;28;20106;-38
2022/06/12 05:10:49;;;;;;;5.20;3.60;;;14.40;99.90;;;;;;5075913;28;20024;-37
2022/06/12 05:13:15;;;;;;;4.00;3.10;;;14.50;99.90;;;;;;5080474;28;20398;-38
2022/06/12 05:15:42;;;;;;;4.20;3.22;;;14.80;99.90;;;;;;5084030;28;20035;-38
2022/06/12 05:18:11;;;;;;;4.03;3.08;;;14.90;99.90;;;;;;5086632;28;20121;-37
2022/06/12 05:20:37;;;;;;;;;;;15.00;99.90;;;;;;5088873;28;20679;-38
2022/06/12 05:23:03;;;;;;;3.47;2.95;;;15.30;99.90;;;;;;5082300;28;19927;-37
2022/06/12 05:25:30;;;;;;;3.28;2.95;;;15.60;99.90;;;;;;5089799;28;20024;-37
2022/06/12 05:27:57;;;;;;;3.70;3.30;;;15.80;99.90;;;;;;5086621;28;20067;-38
2022/06/12 05:30:26;;;;;;;3.70;3.25;;;16.00;99.90;;;;;;5087264;27;20399;-35
2022/06/12 05:32:54;;;;;;;3.70;3.40;;;16.20;99.90;;;;;;5095848;28;20015;-36
2022/06/12 05:35:21;;;;;;;3.97;3.10;;;16.50;99.90;;;;;;5093273;28;20031;-39
2022/06/12 05:37:48;;;;;;;3.38;3.08;;;16.60;99.90;;;;;;5086119;28;20542;-36
2022/06/12 05:40:19;;;;;;;3.28;3.03;;;16.60;99.90;;;;;;5095464;28;20103;-39
2022/06/12 05:42:45;;;;;;;3.38;3.00;;;16.70;99.90;;;;;;5095807;28;20445;-38
2022/06/12 05:45:16;;;;;;;3.58;3.17;;;16.90;99.90;;;;;;5095192;28;20491;-39
2022/06/12 05:47:56;;;;;;;3.30;3.00;;;17.00;99.90;;;;;;5088103;28;20054;-38
2022/06/12 05:50:25;;;;;;;5.25;3.28;;;17.00;99.90;;;;;;5085210;28;20032;-38
2022/06/12 05:52:51;;;;;;;3.20;2.85;;;17.00;99.90;;;;;;5086316;28;20465;-38
2022/06/12 05:55:16;;;;;;;3.22;2.92;;;17.10;99.90;;;;;;5090213;28;20127;-35
2022/06/12 05:57:42;;;;;;;3.40;3.00;;;17.30;99.90;;;;;;5080975;28;20025;-39
2022/06/12 06:00:15;;;;;;;3.53;3.10;;;17.40;99.90;;;;;;5085385;28;20104;-39
2022/06/12 06:02:42;;;;;;;3.95;3.25;;;17.60;99.90;;;;;;4888701;27;20051;-39
2022/06/12 06:05:09;;;;;;;3.78;2.92;;;17.70;99.90;;;;;;5080103;28;20032;-37
2022/06/12 06:07:35;;;;;;;5.07;2.90;;;17.90;99.90;;;;;;5080034;28;20392;-37
2022/06/12 06:10:04;;;;;;;4.68;2.92;;;18.10;99.90;;;;;;5085300;28;20028;-38
2022/06/12 06:12:30;;;;;;;2.97;2.67;;;18.20;99.90;;;;;;5089704;28;20066;-38
2022/06/12 06:14:56;;;;;;;3.60;2.95;;;18.40;99.90;;;;;;5084942;28;20107;-36
2022/06/12 06:17:22;;;;;;;3.35;2.40;;;18.60;99.90;;;;;;5078987;28;20752;-38
2022/06/12 06:19:47;;;;;;;3.17;2.97;;;18.80;99.90;;;;;;5087949;28;20028;-38
2022/06/12 06:22:16;;;;;;;3.22;2.92;;;18.90;99.90;;;;;;5083602;28;20024;-38
2022/06/12 06:24:43;;;;;;;2.90;2.70;;;19.20;99.90;;;;;;5084050;28;20024;-36
2022/06/12 06:27:10;;;;;;;2.70;2.50;;;19.20;99.90;;;;;;5082122;28;20107;-38
2022/06/12 06:29:36;;;;;;;3.10;2.80;;;19.30;99.90;;;;;;5084363;28;20035;-39
2022/06/12 06:32:02;;;;;;;3.10;2.45;;;19.60;99.90;;;;;;5080559;27;20035;-39
2022/06/12 06:34:28;;;;;;;2.92;2.63;;;19.60;97.80;;;;;;5087411;28;20032;-35
2022/06/12 06:36:54;;;;;;;3.13;2.63;;;19.80;93.90;;;;;;5074527;28;20098;-39
2022/06/12 06:39:19;;;;;;;3.33;2.50;;;19.70;95.80;;;;;;5083261;28;20393;-38
2022/06/12 06:41:45;;;;;;;3.40;2.40;;;20.00;96.60;;;;;;5085104;28;20024;-39
2022/06/12 06:46:55;;;;;;;4.25;2.60;;;20.30;96.00;;;;;;5085168;28;20052;-39
2022/06/12 06:49:21;;;;;;;2.47;2.28;;;20.20;90.90;;;;;;5089051;28;20028;-36
2022/06/12 06:51:47;;;;;;;3.20;2.17;;;20.50;92.80;;;;;;5079613;28;20031;-37
2022/06/12 06:54:12;;;;;;;3.40;2.45;;;20.70;92.50;;;;;;5082132;28;20489;-37
2022/06/12 06:56:38;;;;;;;2.30;2.10;;;20.70;86.00;;;;;;5087163;28;20122;-39
2022/06/12 06:59:04;;;;;;;2.85;2.47;;;20.70;88.20;;;;;;5085608;28;20025;-37
2022/06/12 07:01:29;;;;;;;3.40;2.20;;;20.50;86.60;;;;;;5078389;28;20099;-37
2022/06/12 07:03:55;;;;;;;2.42;2.22;;;20.60;88.30;;;;;;5078896;28;20028;-37
2022/06/12 07:06:22;;;;;;;2.58;2.20;;;20.80;90.00;;;;;;5084866;28;20441;-39
2022/06/12 07:08:47;;;;;;;2.33;2.13;;;21.10;88.90;;;;;;5084726;28;20035;-38
2022/06/12 07:11:13;;;;;;;2.50;2.20;;;21.30;86.40;;;;;;5077318;28;20069;-36
2022/06/12 07:13:39;;;;;;;3.03;1.88;;;21.40;81.10;;;;;;5072563;28;20043;-37
2022/06/12 07:16:05;;;;;;;2.60;2.40;;;21.20;76.70;;;;;;5078871;28;20058;-38
2022/06/12 07:18:31;;;;;;;3.10;2.45;;;21.30;85.60;;;;;;5076310;28;20500;-39
2022/06/12 07:21:00;;;;;;;3.08;2.40;;;21.60;82.00;;;;;;5087007;28;20037;-38
2022/06/12 07:23:27;;;;;;;2.60;2.40;;;21.70;83.10;;;;;;5092971;28;20027;-38
2022/06/12 07:25:56;;;;;;;3.55;2.45;;;21.70;81.10;;;;;;5080105;28;20599;-38
2022/06/12 07:28:24;;;;;;;2.78;2.22;;;21.80;74.70;;;;;;5084138;27;20028;-38
2022/06/12 07:30:50;;;;;;;3.03;2.50;;;21.80;87.40;;;;;;5090165;27;20116;-37
2022/06/12 07:33:16;;;;;;;2.67;2.10;;;22.00;76.80;;;;;;5097835;28;20520;-37
2022/06/12 07:35:43;;;;;;;2.60;2.40;;;21.90;79.40;;;;;;5087904;28;20036;-39
2022/06/12 07:38:12;;;;;;;2.75;2.55;;;22.00;83.10;;;;;;5096087;28;20767;-37
2022/06/12 07:40:47;;;;;;;2.53;2.33;;;22.10;84.00;;;;;;5081290;28;20020;-36
2022/06/12 07:43:13;;;;;;;2.78;2.58;;;22.30;82.70;;;;;;5088556;28;20020;-38
2022/06/12 07:45:40;;;;;;;7.10;2.90;;;22.50;83.60;;;;;;5080127;28;20153;-37
2022/06/12 07:48:06;;;;;;;;;;;22.80;80.20;;;;;;5085689;28;20028;-38
2022/06/12 07:50:32;;;;;;;2.30;2.10;;;23.20;69.40;;;;;;5086777;28;19912;-38
2022/06/12 07:52:58;;;;;;;2.50;2.30;;;22.90;67.50;;;;;;5087022;28;20027;-35
2022/06/12 07:55:25;;;;;;;3.10;1.90;;;22.80;66.30;;;;;;5082007;28;20132;-38
2022/06/12 07:57:50;;;;;;;2.00;1.90;;;22.90;71.10;;;;;;5083406;28;20028;-37
2022/06/12 08:00:18;;;;;;;3.25;2.10;;;23.10;60.70;;;;;;5079667;28;20016;-38
2022/06/12 08:02:46;;;;;;;2.42;2.22;;;23.20;58.50;;;;;;5076793;27;20040;-38
2022/06/12 08:05:13;;;;;;;2.58;2.25;;;23.20;63.60;;;;;;5086586;28;20419;-37
2022/06/12 08:07:39;;;;;;;2.80;1.85;;;23.30;62.80;;;;;;5083166;28;20032;-38
2022/06/12 08:10:06;;;;;;;2.15;1.92;;;23.50;63.20;;;;;;5077468;28;20044;-37
2022/06/12 08:12:34;;;;;;;2.40;2.20;;;23.60;57.80;;;;;;5081704;28;20035;-34
2022/06/12 08:14:59;;;;;;;2.42;2.20;;;24.00;59.60;;;;;;5092720;28;20035;-37
2022/06/12 08:17:25;;;;;;;2.55;2.20;;;24.50;60.30;;;;;;5087762;28;20029;-35
2022/06/12 08:22:36;;;;;;;2.30;2.10;;;24.70;58.80;;;;;;5090209;28;20034;-38
2022/06/12 08:25:02;;;;;;;2.17;1.80;;;25.00;54.20;;;;;;5086665;28;20430;-37
2022/06/12 08:27:28;;;;;;;2.92;2.00;;;25.40;53.80;;;;;;5085171;28;20503;-39
2022/06/12 08:29:53;;;;;;;2.80;1.83;;;25.30;52.30;;;;;;5090636;28;20050;-37
2022/06/12 08:32:21;;;;;;;2.22;2.00;;;25.20;52.60;;;;;;5084678;28;20400;-37
2022/06/12 08:34:53;;;;;;;;;;;25.50;54.30;;;;;;5084415;28;20039;-38
2022/06/12 08:37:26;;;;;;;2.70;1.90;;;25.80;55.40;;;;;;5083949;28;19961;-38
2022/06/12 08:39:52;;;;;;;2.10;2.00;;;25.90;50.10;;;;;;5086675;27;20431;-36
2022/06/12 08:42:27;;;;;;;2.20;2.00;;;26.20;53.30;;;;;;5079391;28;20023;-36
2022/06/12 08:45:23;;;;;;;2.10;2.00;;;26.50;50.90;;;;;;5083117;28;20038;-37
2022/06/12 08:48:28;;;;;;;3.47;2.00;;;26.00;52.80;;;;;;5078964;28;20020;-36
2022/06/12 08:51:29;;;;;;;2.20;2.10;;;26.00;53.70;;;;;;5077876;28;20096;-37
2022/06/12 08:54:00;;;;;;;1.90;1.80;;;26.30;51.50;;;;;;5088657;28;20032;-37
2022/06/12 08:56:53;;;;;;;2.30;2.10;;;25.90;50.80;;;;;;5080515;28;20051;-37
2022/06/12 08:59:34;;;;;;;2.88;2.00;;;26.50;50.70;;;;;;5077537;28;20052;-35
2022/06/12 09:02:03;;;;;;;2.90;1.92;;;26.60;51.90;;;;;;5075457;28;20029;-37
2022/06/12 09:04:29;;;;;;;2.28;2.08;;;26.90;51.40;;;;;;5083591;28;20486;-38
2022/06/12 09:07:02;;;;;;;1.90;1.80;;;27.10;49.10;;;;;;5082180;28;20041;-36
2022/06/12 09:09:55;;;;;;;2.35;2.15;;;26.90;48.30;;;;;;5082985;28;20119;-36
2022/06/12 09:12:47;;;;;;;2.05;1.95;;;27.20;49.50;;;;;;5083205;28;20638;-38
2022/06/12 09:15:37;;;;;;;2.47;2.28;;;27.30;49.10;;;;;;5068765;28;20457;-35
2022/06/12 09:18:09;;;;;;;2.53;2.10;;;27.10;48.60;;;;;;5073968;28;20101;-36
2022/06/12 09:21:08;;;;;;;2.50;2.30;;;27.10;53.20;;;;;;5080022;28;20035;-38
2022/06/12 09:23:37;;;;;;;2.50;2.03;;;27.30;48.60;;;;;;5056764;28;20036;-38
2022/06/12 09:26:30;;;;;;;2.58;1.80;;;27.20;47.60;;;;;;5084011;28;20082;-36
2022/06/12 09:29:29;;;;;;;1.98;1.85;;;27.40;46.30;;;;;;5082074;28;20036;-39
2022/06/12 09:32:04;;;;;;;1.83;1.73;;;27.90;48.50;;;;;;5079334;28;20060;-39
2022/06/12 09:34:52;;;;;;;2.58;2.38;;;28.20;48.80;;;;;;5086025;28;20059;-38
2022/06/12 09:40:39;;;;;;;3.72;2.03;;;28.60;44.10;;;;;;5084256;28;20043;-35
2022/06/12 09:43:27;;;;;;;2.10;2.00;;;27.90;41.50;;;;;;5084916;28;20040;-37
2022/06/12 09:46:20;;;;;;;4.15;1.80;;;27.80;42.60;;;;;;5082751;28;20039;-38
2022/06/12 09:49:06;;;;;;;2.45;2.20;;;28.20;44.60;;;;;;5081157;28;20558;-37
2022/06/12 09:51:53;;;;;;;2.08;1.73;;;28.10;45.60;;;;;;5084136;28;20634;-39
2022/06/12 09:54:29;;;;;;;1.85;1.75;;;28.30;42.80;;;;;;5083218;28;20742;-39
2022/06/12 09:57:28;;;;;;;2.03;1.83;;;28.40;41.30;;;;;;5088255;28;20047;-39
2022/06/12 10:00:06;;;;;;;2.10;2.00;;;28.40;44.70;;;;;;5087015;28;20517;-36
2022/06/12 10:02:56;;;;;;;1.83;1.73;;;28.40;41.90;;;;;;5080170;28;20028;-38
2022/06/12 10:05:35;;;;;;;2.22;1.90;;;27.20;42.50;;;;;;5065914;28;20027;-39
2022/06/12 10:08:10;;;;;;;2.42;1.92;;;27.00;44.00;;;;;;5078785;28;20024;-39
2022/06/12 10:10:50;;;;;;;1.77;1.65;;;27.30;44.70;;;;;;5079998;28;20028;-39
2022/06/12 10:13:31;;;;;;;2.72;1.98;;;27.50;40.80;;;;;;5082146;28;20024;-38
2022/06/12 10:16:02;;;;;;;4.18;2.30;;;27.70;44.40;;;;;;5085816;28;20028;-36
2022/06/12 10:18:47;;;;;;;1.92;1.83;;;28.00;45.90;;;;;;5083935;28;20020;-39
2022/06/12 10:21:18;;;;;;;3.15;2.00;;;28.40;45.50;;;;;;5079560;28;20147;-35
2022/06/12 10:23:44;;;;;;;2.50;1.70;;;28.70;42.70;;;;;;5085640;28;20024;-39
2022/06/12 10:26:30;;;;;;;1.63;1.52;;;29.00;44.00;;;;;;5082956;28;20088;-37
2022/06/12 10:29:09;;;;;;;2.00;1.88;;;28.90;42.90;;;;;;5081651;28;20034;-36
2022/06/12 10:31:54;;;;;;;2.15;1.77;;;28.80;40.00;;;;;;5076245;28;20115;-37
2022/06/12 10:34:23;;;;;;;2.00;1.80;;;28.00;42.80;;;;;;5081309;28;20036;-37
2022/06/12 10:36:49;;;;;;;2.92;1.92;;;28.40;42.90;;;;;;5079330;28;20024;-39
2022/06/12 10:39:21;;;;;;;1.88;1.70;;;28.30;43.80;;;;;;5077166;28;20323;-39
2022/06/12 10:42:00;;;;;;;1.70;1.58;;;28.60;43.20;;;;;;5085186;28;20388;-39
2022/06/12 10:44:29;;;;;;;1.90;1.75;;;27.70;39.50;;;;;;5083793;28;20023;-36
2022/06/12 10:46:55;;;;;;;2.20;1.83;;;27.70;40.10;;;;;;5086000;28;20136;-39
2022/06/12 10:49:23;;;;;;;2.03;1.80;;;27.10;41.40;;;;;;5087546;28;20556;-39
2022/06/12 10:51:49;;;;;;;2.15;1.90;;;26.90;40.90;;;;;;5078622;28;20508;-36
2022/06/12 10:54:21;;;;;;;1.98;1.77;;;26.90;40.40;;;;;;5085273;28;20036;-37
2022/06/12 10:56:53;;;;;;;1.73;1.63;;;27.20;45.00;;;;;;5082980;28;20044;-37
2022/06/12 10:59:34;;;;;;;2.30;1.80;;;27.00;39.70;;;;;;5079432;28;20035;-39
2022/06/12 11:02:31;;;;;;;1.98;1.60;;;27.10;39.50;;;;;;5078323;27;20040;-36
2022/06/12 11:05:28;;;;;;;1.67;1.50;;;27.30;41.30;;;;;;5080854;28;20025;-38
2022/06/12 11:08:27;;;;;;;1.83;1.48;;;27.30;43.10;;;;;;5083016;28;20039;-37
2022/06/12 11:11:14;;;;;;;1.55;1.45;;;27.20;38.80;;;;;;5083361;28;20020;-36
2022/06/12 11:14:03;;;;;;;;;;;26.70;37.90;;;;;;5083173;28;20225;-39
2022/06/12 11:16:34;;;;;;;2.78;1.45;;;26.70;38.60;;;;;;5079564;28;19955;-36
2022/06/12 11:19:15;;;;;;;1.70;1.60;;;26.80;37.10;;;;;;5080416;28;20073;-36
2022/06/12 11:21:57;;;;;;;1.88;1.60;;;26.60;40.30;;;;;;5082495;28;20834;-36
2022/06/12 11:24:28;;;;;;;1.80;1.70;;;27.20;40.60;;;;;;5080731;28;20020;-39
2022/06/12 11:27:12;;;;;;;1.70;1.52;;;27.20;40.50;;;;;;5078840;28;20036;-39
2022/06/12 11:29:50;;;;;;;1.50;1.40;;;27.30;41.00;;;;;;5078923;28;20036;-39
2022/06/12 11:32:51;;;;;;;1.85;1.70;;;27.00;40.00;;;;;;5085529;28;20024;-38
2022/06/12 11:35:32;;;;;;;1.83;1.73;;;26.60;39.10;;;;;;5066855;28;20101;-39
2022/06/12 11:38:35;;;;;;;2.33;1.60;;;26.50;40.50;;;;;;5077672;28;20532;-40
2022/06/12 11:41:03;;;;;;;2.00;1.90;;;26.50;41.60;;;;;;5081060;28;20111;-40
2022/06/12 11:43:47;;;;;;;2.38;2.22;;;26.40;39.40;;;;;;5077591;28;20031;-40
2022/06/12 11:46:54;;;;;;;1.90;1.80;;;26.40;40.90;;;;;;5086604;28;20042;-40
2022/06/12 11:49:40;;;;;;;1.98;1.67;;;26.70;40.30;;;;;;5049228;28;20040;-39
2022/06/12 11:52:20;;;;;;;1.80;1.70;;;26.60;39.70;;;;;;5080680;28;20020;-40
2022/06/12 11:55:12;;;;;;;1.73;1.63;;;26.70;38.30;;;;;;5083254;28;20076;-39
2022/06/12 11:57:57;;;;;;;2.15;1.95;;;27.00;41.60;;;;;;5080307;28;20059;-40
2022/06/12 12:00:42;;;;;;;3.88;1.80;;;27.30;39.80;;;;;;5083041;28;20550;-38
2022/06/12 12:03:27;;;;;;;1.90;1.70;;;27.20;42.20;;;;;;5077957;28;20043;-37
2022/06/12 12:06:11;;;;;;;1.80;1.70;;;27.20;39.70;;;;;;5080746;28;20020;-37
2022/06/12 12:08:40;;;;;;;1.70;1.50;;;27.30;39.80;;;;;;5081956;28;20028;-39
2022/06/12 12:11:13;;;;;;;3.50;3.00;;;27.00;37.90;;;;;;5082598;28;20028;-39
2022/06/12 12:13:45;;;;;;;3.53;2.13;;;27.20;39.40;;;;;;5080243;28;20024;-40
2022/06/12 12:16:34;;;;;;;1.75;1.40;;;27.30;37.80;;;;;;5079825;28;20116;-40
2022/06/12 12:19:02;;;;;;;1.42;1.33;;;27.00;35.40;;;;;;5082729;28;22502;-37
2022/06/12 12:21:33;;;;;;;2.40;1.77;;;26.70;35.40;;;;;;5082633;28;20039;-39
2022/06/12 12:24:00;;;;;;;1.60;1.50;;;26.60;38.00;;;;;;5081412;28;20036;-39
2022/06/12 12:26:35;;;;;;;2.05;1.70;;;26.70;38.90;;;;;;5083841;28;20125;-40
2022/06/12 12:29:09;;;;;;;1.70;1.60;;;26.60;40.20;;;;;;5080118;28;20047;-39
2022/06/12 12:31:37;;;;;;;2.00;1.80;;;26.90;36.80;;;;;;5080680;28;20622;-39
2022/06/12 12:34:06;;;;;;;1.45;1.30;;;26.90;40.10;;;;;;5083478;28;20016;-39
2022/06/12 12:42:36;;;;;;;1.88;1.70;;;27.10;37.70;;;;;;5082778;28;20031;-40
2022/06/12 12:45:23;;;;;;;2.25;1.65;;;27.00;34.70;;;;;;5082234;28;20050;-39
2022/06/12 12:48:10;;;;;;;1.80;1.60;;;27.10;38.40;;;;;;5082925;28;20029;-40
2022/06/12 12:51:02;;;;;;;;;;;27.30;39.50;;;;;;5082928;28;20027;-39
2022/06/12 12:53:31;;;;;;;1.52;1.42;;;27.30;33.80;;;;;;5079454;28;20324;-38
2022/06/12 12:56:02;;;;;;;2.22;1.55;;;27.50;34.10;;;;;;5084936;28;22437;-37
2022/06/12 12:58:29;;;;;;;1.80;1.50;;;27.60;35.00;;;;;;5081891;28;20036;-39
2022/06/12 13:01:10;;;;;;;1.70;1.60;;;27.60;38.00;;;;;;5083908;27;20032;-40
2022/06/12 13:03:44;;;;;;;2.35;1.52;;;27.50;35.90;;;;;;5087536;28;20024;-40
2022/06/12 13:06:54;;;;;;;3.60;1.45;;;27.30;34.80;;;;;;5088751;28;20500;-37
2022/06/12 13:09:41;;;;;;;1.70;1.60;;;27.00;35.60;;;;;;5052735;28;20046;-40
2022/06/12 13:12:34;;;;;;;5.63;3.70;;;27.10;39.00;;;;;;5052073;28;20029;-40
2022/06/12 13:15:32;;;;;;;6.80;6.20;;;27.20;38.10;;;;;;5079601;28;20094;-39
2022/06/12 13:18:08;;;;;;;4.43;2.17;;;27.40;36.30;;;;;;5084297;28;20097;-39
2022/06/12 13:21:01;;;;;;;2.92;1.65;;;27.30;36.30;;;;;;5087832;28;20046;-39
2022/06/12 13:23:58;;;;;;;2.92;1.50;;;27.40;34.70;;;;;;5073157;28;20063;-38
2022/06/12 13:26:28;;;;;;;1.50;1.40;;;27.30;37.10;;;;;;5084764;28;20391;-40
2022/06/12 13:29:00;;;;;;;2.05;1.65;;;27.40;36.30;;;;;;5084312;28;20031;-39
2022/06/12 13:31:33;;;;;;;1.70;1.60;;;27.30;35.20;;;;;;5088968;27;20135;-36
2022/06/12 13:34:00;;;;;;;2.45;2.25;;;27.30;37.80;;;;;;5083551;28;20107;-39
2022/06/12 13:36:33;;;;;;;1.90;1.48;;;27.30;37.70;;;;;;5083995;28;20097;-37
2022/06/12 13:39:04;;;;;;;2.25;1.83;;;27.50;35.90;;;;;;5086473;28;20467;-40
2022/06/12 13:41:43;;;;;;;1.90;1.60;;;27.60;38.30;;;;;;5088372;28;20032;-39
2022/06/12 13:44:25;;;;;;;1.50;1.40;;;27.50;37.80;;;;;;5086148;28;20489;-40
2022/06/12 13:46:52;;;;;;;1.92;1.50;;;27.20;35.80;;;;;;5080776;28;20036;-38